Time;durP1;ratioP1;P1;durP2;ratioP2;P2;SDS_P1;SDS_P2;PMS_P1;PMS_P2;Temp;Humidity;BMP_temperature;BMP_pressure;BME280_temperature;BME280_humidity;BME280_pressure;Samples;Min_cycle;Max_cycle;Signal;HPM_P1;HPM_P2
2022/05/05 00:00:24;;;;;;;11.33;5.20;;;9.50;99.90;;;;;;4451742;28;656915;-66
2022/05/05 00:03:11;;;;;;;13.10;5.07;;;9.40;99.90;;;;;;4430879;28;656882;-66
2022/05/05 00:05:58;;;;;;;15.37;4.73;;;9.40;99.90;;;;;;4448774;28;657395;-66
2022/05/05 00:08:45;;;;;;;9.63;5.00;;;9.30;99.90;;;;;;4426920;28;656443;-66
2022/05/05 00:14:40;;;;;;;10.30;5.17;;;9.20;99.90;;;;;;4423232;28;656832;-66
2022/05/05 00:17:27;;;;;;;14.07;5.40;;;9.20;99.90;;;;;;4427482;28;658927;-66
2022/05/05 00:20:14;;;;;;;10.40;5.10;;;9.20;99.90;;;;;;4443849;28;657067;-66
2022/05/05 00:23:01;;;;;;;10.32;5.30;;;9.40;99.90;;;;;;4428139;28;656437;-66
2022/05/05 00:25:48;;;;;;;12.20;5.23;;;9.30;99.90;;;;;;4444016;28;656648;-66
2022/05/05 00:28:37;;;;;;;9.20;5.13;;;9.30;99.90;;;;;;4427016;28;658382;-66
2022/05/05 00:31:24;;;;;;;8.73;5.03;;;9.20;99.90;;;;;;4446541;28;655548;-66
2022/05/05 00:34:11;;;;;;;10.70;5.63;;;9.10;99.90;;;;;;4427090;28;655967;-67
2022/05/05 00:36:58;;;;;;;10.00;4.60;;;9.00;99.90;;;;;;4447628;28;657899;-66
2022/05/05 00:39:46;;;;;;;9.87;5.07;;;8.80;99.90;;;;;;4428347;28;657731;-66
2022/05/05 00:42:33;;;;;;;9.40;5.20;;;8.80;99.90;;;;;;4449765;28;656535;-66
2022/05/05 00:45:22;;;;;;;11.70;5.23;;;8.80;99.90;;;;;;4433113;28;655449;-66
2022/05/05 00:48:12;;;;;;;12.53;5.70;;;8.70;99.90;;;;;;4450158;28;655912;-66
2022/05/05 00:50:59;;;;;;;15.05;5.97;;;8.60;99.90;;;;;;4424464;28;657003;-66
2022/05/05 00:53:46;;;;;;;12.23;5.97;;;8.50;99.90;;;;;;4425212;28;657096;-67
2022/05/05 00:56:34;;;;;;;9.33;5.77;;;8.40;99.90;;;;;;4448739;28;657529;-66
2022/05/05 00:59:21;;;;;;;16.47;6.00;;;8.30;99.90;;;;;;4427853;28;655457;-66
2022/05/05 01:02:09;;;;;;;12.20;5.40;;;8.20;99.90;;;;;;4452360;28;656830;-66
2022/05/05 01:04:57;;;;;;;9.03;5.63;;;8.20;99.90;;;;;;4428489;28;657143;-66
2022/05/05 01:07:45;;;;;;;10.57;5.60;;;8.20;99.90;;;;;;4448733;28;655167;-66
2022/05/05 01:10:32;;;;;;;13.30;5.63;;;8.10;99.90;;;;;;4422579;28;658399;-66
2022/05/05 01:13:19;;;;;;;13.70;6.63;;;8.00;99.90;;;;;;4446937;28;656843;-66
2022/05/05 01:16:06;;;;;;;12.83;5.43;;;7.90;99.90;;;;;;4418442;28;656512;-66
2022/05/05 01:18:55;;;;;;;10.23;6.00;;;7.80;99.90;;;;;;4444294;28;656926;-66
2022/05/05 01:21:52;;;;;;;12.43;5.80;;;7.80;99.90;;;;;;4422620;28;657218;-66
2022/05/05 01:30:54;;;;;;;8.20;5.40;;;7.40;99.90;;;;;;4422304;28;657274;-66
2022/05/05 01:33:41;;;;;;;12.40;5.90;;;7.40;99.90;;;;;;4429174;28;655845;-67
2022/05/05 01:36:28;;;;;;;12.20;6.03;;;7.40;99.90;;;;;;4447614;28;658501;-67
2022/05/05 01:39:17;;;;;;;10.63;5.83;;;7.50;99.90;;;;;;4426771;28;656372;-66
2022/05/05 01:42:05;;;;;;;12.10;6.00;;;7.30;99.90;;;;;;4444881;28;657096;-66
2022/05/05 01:44:52;;;;;;;15.13;5.93;;;7.30;99.90;;;;;;4422407;28;658204;-66
2022/05/05 01:47:39;;;;;;;12.57;6.00;;;7.40;99.90;;;;;;4445190;28;657155;-67
2022/05/05 01:50:26;;;;;;;9.67;6.03;;;7.30;99.90;;;;;;4424797;28;656334;-66
2022/05/05 01:53:13;;;;;;;22.00;6.67;;;7.10;99.90;;;;;;4443105;28;656596;-67
2022/05/05 01:56:03;;;;;;;13.87;5.53;;;7.20;99.90;;;;;;4422892;28;656746;-66
2022/05/05 01:58:50;;;;;;;12.17;6.77;;;7.20;99.90;;;;;;4425380;28;656410;-66
2022/05/05 02:01:38;;;;;;;23.73;6.70;;;7.20;99.90;;;;;;4439961;28;657754;-66
2022/05/05 02:04:25;;;;;;;19.27;7.57;;;7.20;99.90;;;;;;4436015;28;657110;-66
2022/05/05 02:07:12;;;;;;;17.73;7.70;;;7.10;99.90;;;;;;4444325;28;657369;-66
2022/05/05 02:10:01;;;;;;;18.80;7.70;;;7.00;99.90;;;;;;4443684;28;656665;-66
2022/05/05 02:12:51;;;;;;;21.70;8.40;;;7.00;99.90;;;;;;4422059;28;657465;-66
2022/05/05 02:15:38;;;;;;;21.73;8.40;;;6.90;99.90;;;;;;4423393;28;657112;-66
2022/05/05 02:18:26;;;;;;;16.47;7.10;;;6.90;99.90;;;;;;4430851;28;656647;-66
2022/05/05 02:21:13;;;;;;;18.53;7.30;;;6.70;99.90;;;;;;4450136;28;657351;-67
2022/05/05 02:24:00;;;;;;;16.70;8.43;;;6.70;99.90;;;;;;4426960;28;657362;-66
2022/05/05 02:26:48;;;;;;;17.90;8.17;;;6.60;99.90;;;;;;4443027;28;657357;-66
2022/05/05 02:29:37;;;;;;;18.63;7.77;;;6.70;99.90;;;;;;4425076;28;656898;-66
2022/05/05 02:32:24;;;;;;;27.30;8.37;;;6.60;99.90;;;;;;4447185;28;656573;-66
2022/05/05 02:35:11;;;;;;;19.33;8.40;;;6.60;99.90;;;;;;4428720;28;656466;-66
2022/05/05 02:41:03;;;;;;;22.97;9.67;;;6.50;99.90;;;;;;4423281;28;659386;-66
2022/05/05 02:43:50;;;;;;;27.90;9.73;;;6.30;99.90;;;;;;4428988;28;657894;-66
2022/05/05 02:46:39;;;;;;;25.07;10.13;;;6.30;99.90;;;;;;4443190;28;657153;-66
2022/05/05 02:49:28;;;;;;;21.80;10.67;;;6.30;99.90;;;;;;4419437;28;658997;-67
2022/05/05 02:52:15;;;;;;;20.15;10.02;;;6.30;99.90;;;;;;4425406;28;657233;-66
2022/05/05 02:55:01;;;;;;;26.00;10.30;;;6.20;99.90;;;;;;4444562;28;658143;-66
2022/05/05 02:57:49;;;;;;;22.10;10.10;;;6.10;99.90;;;;;;4443257;28;657551;-66
2022/05/05 03:00:36;;;;;;;33.83;10.43;;;6.00;99.90;;;;;;4420793;28;657747;-66
2022/05/05 03:03:25;;;;;;;27.73;9.93;;;6.00;99.90;;;;;;4446511;28;658550;-66
2022/05/05 03:06:12;;;;;;;17.90;9.33;;;6.10;99.90;;;;;;4421707;28;657875;-66
2022/05/05 03:08:59;;;;;;;23.23;10.40;;;6.20;99.90;;;;;;4441697;28;656378;-66
2022/05/05 03:11:46;;;;;;;21.83;10.63;;;6.20;99.90;;;;;;4422287;28;657609;-66
2022/05/05 03:14:33;;;;;;;28.50;11.67;;;6.30;99.90;;;;;;4443693;28;658024;-66
2022/05/05 03:17:20;;;;;;;23.00;11.80;;;6.30;99.90;;;;;;4422199;28;657679;-66
2022/05/05 03:20:10;;;;;;;22.83;10.83;;;6.50;99.90;;;;;;4434482;28;659082;-66
2022/05/05 03:22:57;;;;;;;22.65;11.43;;;6.60;99.90;;;;;;4423931;28;658258;-67
2022/05/05 03:25:44;;;;;;;25.50;12.03;;;6.70;99.90;;;;;;4447466;28;656959;-66
2022/05/05 03:28:32;;;;;;;26.10;10.40;;;6.80;99.90;;;;;;4423071;28;657812;-66
2022/05/05 03:31:19;;;;;;;23.87;11.30;;;6.80;99.90;;;;;;4448361;28;657743;-66
2022/05/05 03:34:06;;;;;;;25.30;11.40;;;6.90;99.90;;;;;;4423794;28;657903;-66
2022/05/05 03:36:55;;;;;;;25.67;11.25;;;6.80;99.90;;;;;;4440370;28;658215;-66
2022/05/05 03:39:42;;;;;;;22.43;10.10;;;6.80;99.90;;;;;;4421873;28;658449;-67
2022/05/05 03:42:29;;;;;;;19.53;9.93;;;7.00;99.90;;;;;;4445091;28;657818;-67
2022/05/05 03:45:16;;;;;;;23.63;10.83;;;7.20;99.90;;;;;;4427723;28;656647;-66
2022/05/05 03:48:04;;;;;;;22.67;10.90;;;7.40;99.90;;;;;;4443031;28;657708;-66
2022/05/05 03:50:51;;;;;;;23.43;10.80;;;7.40;99.90;;;;;;4420348;28;657774;-66
2022/05/05 03:53:39;;;;;;;24.30;10.67;;;7.50;99.90;;;;;;4438738;28;658633;-66
2022/05/05 03:56:27;;;;;;;18.53;10.07;;;7.70;99.90;;;;;;4426323;28;657776;-66
2022/05/05 03:59:14;;;;;;;23.53;11.07;;;7.70;99.90;;;;;;4441391;28;657238;-66
2022/05/05 04:02:01;;;;;;;19.45;9.82;;;7.80;99.90;;;;;;4422499;28;657426;-66
2022/05/05 04:04:48;;;;;;;20.07;10.17;;;8.00;99.90;;;;;;4446701;28;657067;-66
2022/05/05 04:07:35;;;;;;;18.33;10.10;;;8.10;99.90;;;;;;4426551;28;658044;-66
2022/05/05 04:10:24;;;;;;;18.90;9.77;;;8.30;99.90;;;;;;4448225;28;658310;-66
2022/05/05 04:13:12;;;;;;;22.87;9.30;;;8.20;99.90;;;;;;4426572;28;656975;-66
2022/05/05 04:15:59;;;;;;;16.90;9.03;;;8.40;99.90;;;;;;4440231;28;656693;-66
2022/05/05 04:18:47;;;;;;;19.40;9.17;;;8.50;99.90;;;;;;4427719;28;656214;-66
2022/05/05 04:21:35;;;;;;;19.67;8.80;;;8.70;99.90;;;;;;4446505;28;656812;-66
2022/05/05 04:24:22;;;;;;;17.23;9.00;;;8.80;99.90;;;;;;4426079;28;656744;-67
2022/05/05 04:27:11;;;;;;;23.20;10.30;;;9.00;99.90;;;;;;4447211;28;657024;-66
2022/05/05 04:29:58;;;;;;;21.53;10.00;;;9.00;99.90;;;;;;4421542;28;658038;-66
2022/05/05 04:32:45;;;;;;;24.42;10.85;;;9.00;99.90;;;;;;4424316;28;657483;-66
2022/05/05 04:35:33;;;;;;;23.33;9.77;;;9.10;99.90;;;;;;4443043;28;659138;-66
2022/05/05 04:38:20;;;;;;;22.27;9.57;;;9.10;99.90;;;;;;4429805;28;656525;-66
2022/05/05 04:41:07;;;;;;;15.87;8.47;;;9.30;99.90;;;;;;4448811;28;658076;-66
2022/05/05 04:43:56;;;;;;;17.27;8.47;;;9.30;99.90;;;;;;4445689;28;656098;-66
2022/05/05 04:46:43;;;;;;;16.13;8.70;;;9.30;99.90;;;;;;4421240;28;657049;-66
2022/05/05 04:49:31;;;;;;;18.27;8.77;;;9.40;99.90;;;;;;4428727;28;657064;-66
2022/05/05 04:52:18;;;;;;;15.63;8.20;;;9.40;99.90;;;;;;4447905;28;657865;-66
2022/05/05 04:55:06;;;;;;;15.73;7.80;;;9.40;99.90;;;;;;4428479;28;659257;-66
2022/05/05 04:57:53;;;;;;;14.37;8.13;;;9.40;99.90;;;;;;4443458;28;658100;-66
2022/05/05 05:00:42;;;;;;;17.65;8.43;;;9.50;99.90;;;;;;4431752;28;656169;-66
2022/05/05 05:03:36;;;;;;;17.53;9.97;;;9.60;99.90;;;;;;4441130;28;656655;-66
2022/05/05 05:06:23;;;;;;;19.43;8.67;;;9.70;99.90;;;;;;4419888;28;656460;-66
2022/05/05 05:09:10;;;;;;;19.70;9.57;;;9.80;99.90;;;;;;4421200;28;657450;-66
2022/05/05 05:11:57;;;;;;;17.97;9.50;;;10.00;99.90;;;;;;4441545;28;657707;-66
2022/05/05 05:14:45;;;;;;;18.87;9.60;;;10.20;99.90;;;;;;4442506;28;657992;-66
2022/05/05 05:17:34;;;;;;;23.23;9.43;;;10.30;99.90;;;;;;4448140;28;658604;-66
2022/05/05 05:20:21;;;;;;;18.37;9.20;;;10.40;99.90;;;;;;4425928;28;657424;-66
2022/05/05 05:23:08;;;;;;;16.33;9.57;;;10.40;99.90;;;;;;4435320;28;658235;-66
2022/05/05 05:25:56;;;;;;;19.80;9.33;;;10.40;99.90;;;;;;4420971;28;657721;-67
2022/05/05 05:28:43;;;;;;;39.37;20.40;;;10.40;99.90;;;;;;4448558;28;659280;-66
2022/05/05 05:31:31;;;;;;;19.70;10.40;;;10.40;99.90;;;;;;4422595;28;658697;-66
2022/05/05 05:34:20;;;;;;;20.93;9.63;;;10.50;99.90;;;;;;4448456;28;660269;-66
2022/05/05 05:37:07;;;;;;;21.07;9.50;;;10.60;99.90;;;;;;4417779;28;658470;-67
2022/05/05 05:39:54;;;;;;;16.13;9.33;;;10.70;99.90;;;;;;4430995;28;657804;-67
2022/05/05 05:42:41;;;;;;;17.60;9.60;;;11.00;99.90;;;;;;4424802;28;657995;-66
2022/05/05 05:45:29;;;;;;;24.37;10.90;;;11.10;99.90;;;;;;4453444;28;658996;-67
2022/05/05 05:48:16;;;;;;;20.90;9.97;;;11.40;99.90;;;;;;4418680;28;658889;-66
2022/05/05 05:51:05;;;;;;;19.03;9.57;;;11.70;99.90;;;;;;4444828;28;659510;-66
2022/05/05 05:53:52;;;;;;;17.37;9.97;;;11.90;99.90;;;;;;4419128;28;657873;-66
2022/05/05 05:56:40;;;;;;;23.40;10.67;;;12.10;99.90;;;;;;4446589;28;657547;-67
2022/05/05 05:59:27;;;;;;;21.90;10.37;;;12.30;99.90;;;;;;4426657;28;659215;-67
2022/05/05 06:05:19;;;;;;;18.67;10.20;;;12.70;99.90;;;;;;4415439;28;659907;-66
2022/05/05 06:08:08;;;;;;;21.07;10.00;;;13.10;99.90;;;;;;4421314;28;658973;-66
2022/05/05 06:10:55;;;;;;;24.07;9.67;;;13.20;99.90;;;;;;4430803;28;658715;-66
2022/05/05 06:13:42;;;;;;;18.37;9.73;;;13.40;99.90;;;;;;4451338;28;658469;-67
2022/05/05 06:16:30;;;;;;;20.23;10.17;;;13.50;99.90;;;;;;4444311;28;657905;-67
2022/05/05 06:19:17;;;;;;;20.37;10.43;;;13.80;99.90;;;;;;4444993;28;659479;-66
2022/05/05 06:22:05;;;;;;;15.63;9.00;;;13.90;99.90;;;;;;4433018;28;658801;-66
2022/05/05 06:24:53;;;;;;;21.97;11.43;;;14.10;99.90;;;;;;4421907;28;659202;-67
2022/05/05 06:27:40;;;;;;;18.23;10.10;;;14.20;99.90;;;;;;4426136;28;658743;-66
2022/05/05 06:30:28;;;;;;;18.10;10.77;;;14.30;99.90;;;;;;4442377;28;659880;-67
2022/05/05 06:33:15;;;;;;;24.43;11.53;;;14.50;99.90;;;;;;4433346;28;658821;-66
2022/05/05 06:36:02;;;;;;;18.67;10.80;;;14.70;99.90;;;;;;4444711;28;659745;-67
2022/05/05 06:38:52;;;;;;;19.03;10.30;;;14.80;99.90;;;;;;4447847;28;657559;-67
2022/05/05 06:41:40;;;;;;;17.17;10.20;;;15.00;99.90;;;;;;4421743;28;659961;-66
2022/05/05 06:44:27;;;;;;;18.57;10.23;;;15.20;99.90;;;;;;4422173;28;659379;-66
2022/05/05 06:47:15;;;;;;;20.80;10.87;;;15.40;99.40;;;;;;4434122;28;658357;-66
2022/05/05 06:50:02;;;;;;;15.33;9.67;;;15.60;97.90;;;;;;4443609;28;659660;-66
2022/05/05 06:52:49;;;;;;;15.07;9.70;;;15.80;96.20;;;;;;4445385;28;658234;-66
2022/05/05 06:55:37;;;;;;;14.23;9.30;;;15.60;94.70;;;;;;4420302;28;658539;-67
2022/05/05 06:58:25;;;;;;;13.97;7.90;;;15.80;98.50;;;;;;4443468;28;657040;-67
2022/05/05 07:07:22;;;;;;;12.03;7.40;;;16.40;95.80;;;;;;4427013;28;657733;-67
2022/05/05 07:13:14;;;;;;;10.67;6.23;;;16.20;97.20;;;;;;4423531;28;656479;-66
2022/05/05 07:16:03;;;;;;;12.67;7.23;;;16.40;93.40;;;;;;4430016;28;657953;-66
2022/05/05 07:18:50;;;;;;;12.50;7.27;;;16.30;93.90;;;;;;4430961;28;657669;-66
2022/05/05 07:21:37;;;;;;;9.97;6.30;;;16.60;99.90;;;;;;4451783;28;657979;-67
2022/05/05 07:24:25;;;;;;;10.60;6.50;;;16.70;91.90;;;;;;4446330;28;657532;-66
2022/05/05 07:27:12;;;;;;;12.23;6.30;;;16.90;90.80;;;;;;4449126;28;658420;-67
2022/05/05 07:30:00;;;;;;;8.90;6.30;;;17.20;94.00;;;;;;4440210;28;658082;-67
2022/05/05 07:32:49;;;;;;;9.20;6.37;;;17.20;92.70;;;;;;4443962;28;657216;-67
2022/05/05 07:35:38;;;;;;;9.87;6.30;;;17.00;86.50;;;;;;4418756;28;656660;-67
2022/05/05 07:38:25;;;;;;;11.03;6.77;;;17.40;94.20;;;;;;4430433;28;657163;-66
2022/05/05 07:41:12;;;;;;;10.00;5.63;;;17.60;81.00;;;;;;4444114;28;657533;-66
2022/05/05 07:44:00;;;;;;;8.10;5.90;;;17.90;79.40;;;;;;4436897;28;657942;-67
2022/05/05 07:46:47;;;;;;;10.90;6.87;;;17.80;76.00;;;;;;4427815;28;657544;-66
2022/05/05 07:49:36;;;;;;;12.23;7.40;;;17.60;73.50;;;;;;4446841;28;657531;-66
2022/05/05 07:52:24;;;;;;;9.67;6.03;;;17.90;75.50;;;;;;4421576;28;657952;-67
2022/05/05 07:55:11;;;;;;;10.77;7.07;;;18.00;69.90;;;;;;4432724;28;656330;-67
2022/05/05 07:57:58;;;;;;;7.67;5.93;;;18.10;67.50;;;;;;4443066;28;658198;-66
2022/05/05 08:00:45;;;;;;;11.67;6.40;;;18.20;67.50;;;;;;4427446;28;656601;-66
2022/05/05 08:03:33;;;;;;;12.67;6.97;;;18.10;68.60;;;;;;4444865;28;658811;-67
2022/05/05 08:06:22;;;;;;;9.97;6.13;;;18.10;62.50;;;;;;4428829;28;658266;-67
2022/05/05 08:09:09;;;;;;;12.57;6.83;;;18.10;59.80;;;;;;4445868;28;656692;-66
2022/05/05 08:11:56;;;;;;;8.63;6.40;;;18.50;61.40;;;;;;4423386;28;657916;-66
2022/05/05 08:14:43;;;;;;;10.57;6.53;;;18.80;63.50;;;;;;4440055;28;656682;-67
2022/05/05 08:17:33;;;;;;;11.50;6.47;;;18.60;59.30;;;;;;4425653;28;657454;-67
2022/05/05 08:20:20;;;;;;;8.30;6.67;;;18.90;59.00;;;;;;4433765;28;657831;-66
2022/05/05 08:23:09;;;;;;;11.00;6.57;;;19.30;60.90;;;;;;4449960;28;657183;-67
2022/05/05 08:29:01;;;;;;;9.10;6.00;;;19.20;57.10;;;;;;4402305;28;657438;-67
2022/05/05 08:31:48;;;;;;;9.03;6.43;;;19.60;58.70;;;;;;4443055;28;657442;-67
2022/05/05 08:34:35;;;;;;;8.60;5.77;;;20.30;55.70;;;;;;4428748;28;656586;-67
2022/05/05 08:37:22;;;;;;;11.80;6.00;;;20.30;56.90;;;;;;4448457;28;657190;-67
2022/05/05 08:40:13;;;;;;;8.70;6.10;;;20.30;57.40;;;;;;4445827;28;658431;-67
2022/05/05 08:43:00;;;;;;;8.73;6.23;;;20.30;52.80;;;;;;4433718;28;656161;-67
2022/05/05 08:45:47;;;;;;;8.47;5.80;;;20.80;55.30;;;;;;4445985;28;657408;-67
2022/05/05 08:48:35;;;;;;;10.03;5.63;;;20.00;55.80;;;;;;4450069;28;657078;-67
2022/05/05 08:51:22;;;;;;;8.17;5.70;;;20.60;57.60;;;;;;4429313;28;658421;-67
2022/05/05 08:54:10;;;;;;;10.13;6.07;;;20.80;52.60;;;;;;4450266;28;656830;-67
2022/05/05 08:56:59;;;;;;;9.87;5.40;;;19.90;54.60;;;;;;4420766;28;659362;-67
2022/05/05 08:59:46;;;;;;;13.97;6.50;;;20.00;54.00;;;;;;4436409;28;656980;-67
2022/05/05 09:02:34;;;;;;;10.83;5.70;;;20.20;56.50;;;;;;4423814;28;657850;-67
2022/05/05 09:05:48;;;;;;;9.57;5.77;;;20.40;54.60;;;;;;4417404;28;657246;-67
2022/05/05 09:08:35;;;;;;;8.20;6.00;;;20.90;53.00;;;;;;4404752;28;656784;-66
2022/05/05 09:11:23;;;;;;;10.40;6.43;;;20.40;53.60;;;;;;4448489;28;657578;-67
2022/05/05 09:14:12;;;;;;;10.98;5.22;;;20.40;56.20;;;;;;4427144;28;657547;-66
2022/05/05 09:17:04;;;;;;;10.07;6.10;;;20.10;55.00;;;;;;4444658;28;658331;-66
2022/05/05 09:19:52;;;;;;;9.27;6.10;;;19.80;55.20;;;;;;4400718;28;658761;-66
2022/05/05 09:22:39;;;;;;;15.77;6.53;;;20.40;53.70;;;;;;4450985;28;658889;-67
2022/05/05 09:25:29;;;;;;;8.97;6.60;;;20.30;56.00;;;;;;4428974;28;657954;-67
2022/05/05 09:28:19;;;;;;;11.37;6.17;;;21.20;60.70;;;;;;4429357;28;656675;-67
2022/05/05 09:31:08;;;;;;;9.53;5.83;;;22.10;54.50;;;;;;4419079;28;657722;-67
2022/05/05 09:33:56;;;;;;;9.03;5.87;;;21.50;52.80;;;;;;4426776;28;656512;-67
2022/05/05 09:36:43;;;;;;;10.90;6.27;;;21.30;52.80;;;;;;4449444;28;658244;-67
2022/05/05 09:39:35;;;;;;;11.43;5.90;;;20.80;53.80;;;;;;4429818;28;657957;-67
2022/05/05 09:42:40;;;;;;;10.82;6.00;;;20.60;54.60;;;;;;4425156;28;657696;-67
2022/05/05 09:45:30;;;;;;;9.20;5.67;;;20.70;55.10;;;;;;4397974;28;658152;-67
2022/05/05 09:48:19;;;;;;;6.97;5.60;;;20.80;53.60;;;;;;4421101;28;658368;-67
2022/05/05 09:51:06;;;;;;;6.63;5.22;;;20.70;54.50;;;;;;4415932;28;656539;-67
2022/05/05 10:00:19;;;;;;;8.27;5.40;;;21.50;50.80;;;;;;4427586;28;656241;-67
2022/05/05 10:06:20;;;;;;;9.83;6.13;;;21.40;51.70;;;;;;4400278;28;657669;-67
2022/05/05 10:09:08;;;;;;;8.80;5.23;;;21.40;50.20;;;;;;4399843;28;657274;-67
2022/05/05 10:11:55;;;;;;;8.97;5.10;;;21.90;48.50;;;;;;4434426;28;657046;-67
2022/05/05 10:14:43;;;;;;;6.07;4.93;;;21.50;49.80;;;;;;4446362;28;656539;-66
2022/05/05 10:17:30;;;;;;;8.43;5.30;;;21.50;49.60;;;;;;4413584;28;656400;-66
2022/05/05 10:20:19;;;;;;;8.40;5.80;;;21.50;51.50;;;;;;4443952;28;657092;-66
2022/05/05 10:23:09;;;;;;;6.97;5.30;;;22.10;48.20;;;;;;4415908;28;657616;-66
2022/05/05 10:25:56;;;;;;;6.83;5.00;;;21.70;49.50;;;;;;4417104;28;656248;-66
2022/05/05 10:28:47;;;;;;;10.40;5.27;;;22.50;47.50;;;;;;4438510;28;657975;-66
2022/05/05 10:31:45;;;;;;;8.57;4.93;;;23.00;47.20;;;;;;4410311;28;658199;-66
2022/05/05 10:34:33;;;;;;;6.20;4.30;;;22.50;49.20;;;;;;4383899;28;657687;-66
2022/05/05 10:37:22;;;;;;;6.53;4.83;;;22.80;44.40;;;;;;4422398;28;656995;-66
2022/05/05 10:40:11;;;;;;;7.13;4.47;;;23.10;46.30;;;;;;4435148;28;656696;-66
2022/05/05 10:42:58;;;;;;;13.17;3.83;;;23.20;42.80;;;;;;4420243;28;657043;-66
2022/05/05 10:45:45;;;;;;;8.60;3.93;;;22.50;44.20;;;;;;4418663;28;657957;-66
2022/05/05 10:48:35;;;;;;;6.07;4.20;;;22.40;47.60;;;;;;4431283;28;657673;-66
2022/05/05 10:51:22;;;;;;;7.00;4.40;;;23.30;43.90;;;;;;4417872;28;657474;-66
2022/05/05 10:54:22;;;;;;;6.03;3.83;;;23.20;48.40;;;;;;4429231;28;656937;-66
2022/05/05 10:57:42;;;;;;;5.93;3.87;;;23.10;47.20;;;;;;4410897;28;656853;-66
2022/05/05 11:00:39;;;;;;;8.03;3.87;;;22.70;44.30;;;;;;4413234;28;656366;-66
2022/05/05 11:03:26;;;;;;;4.07;3.67;;;22.50;47.10;;;;;;4393613;28;657549;-66
2022/05/05 11:06:17;;;;;;;5.60;4.20;;;22.90;47.00;;;;;;4445973;28;657300;-66
2022/05/05 11:09:04;;;;;;;5.77;4.53;;;23.30;43.70;;;;;;4407174;28;656691;-66
2022/05/05 11:12:16;;;;;;;6.60;4.90;;;24.00;47.20;;;;;;4415516;28;657373;-66
2022/05/05 11:21:33;;;;;;;7.50;5.30;;;22.60;46.10;;;;;;4422628;28;656801;-66
2022/05/05 11:24:26;;;;;;;8.37;4.83;;;22.50;47.90;;;;;;4394964;28;657310;-66
2022/05/05 11:27:15;;;;;;;9.37;5.00;;;23.30;46.00;;;;;;4417768;28;656725;-66
2022/05/05 11:30:02;;;;;;;7.17;4.70;;;22.10;45.60;;;;;;4416043;28;657842;-66
2022/05/05 11:32:51;;;;;;;9.50;4.93;;;22.70;48.50;;;;;;4438379;28;656775;-66
2022/05/05 11:35:38;;;;;;;6.43;4.70;;;22.70;47.60;;;;;;4419011;28;656994;-66
2022/05/05 11:38:28;;;;;;;6.73;5.00;;;22.70;44.60;;;;;;4428355;28;656484;-66
2022/05/05 11:41:18;;;;;;;8.80;5.10;;;22.50;46.60;;;;;;4422598;28;656447;-66
2022/05/05 11:47:14;;;;;;;6.17;4.57;;;24.50;45.80;;;;;;4391895;28;657618;-66
2022/05/05 11:50:03;;;;;;;9.70;4.70;;;24.30;42.00;;;;;;4423681;28;656298;-67
2022/05/05 11:52:50;;;;;;;6.37;4.10;;;24.20;48.70;;;;;;4421842;28;656466;-66
2022/05/05 11:55:38;;;;;;;5.93;4.00;;;23.40;43.70;;;;;;4439440;28;657458;-66
2022/05/05 12:01:39;;;;;;;6.93;4.20;;;23.00;46.30;;;;;;4425835;28;656783;-66
2022/05/05 12:04:27;;;;;;;6.50;3.77;;;23.60;46.80;;;;;;4418312;28;657262;-66
2022/05/05 12:07:19;;;;;;;5.33;4.07;;;23.70;46.60;;;;;;4436388;28;656534;-66
2022/05/05 12:10:07;;;;;;;7.47;4.00;;;24.60;42.70;;;;;;4394900;28;657042;-66
2022/05/05 12:13:00;;;;;;;6.05;4.20;;;26.10;42.70;;;;;;4434354;28;656610;-66
2022/05/05 12:15:51;;;;;;;5.88;3.72;;;25.00;43.30;;;;;;4423765;28;657665;-66
2022/05/05 12:18:50;;;;;;;5.57;3.85;;;24.90;43.20;;;;;;4418915;28;657095;-67
2022/05/05 12:21:38;;;;;;;9.43;3.58;;;25.60;43.70;;;;;;4396431;28;657081;-66
2022/05/05 12:24:28;;;;;;;6.28;3.35;;;24.90;41.30;;;;;;4438745;28;656698;-66
2022/05/05 12:27:15;;;;;;;6.78;3.30;;;24.90;44.00;;;;;;4424489;28;657429;-66
2022/05/05 12:30:04;;;;;;;6.30;3.35;;;24.00;41.30;;;;;;4439903;28;657365;-66
2022/05/05 12:32:51;;;;;;;6.65;3.30;;;24.10;44.00;;;;;;4421756;28;656407;-66
2022/05/05 12:35:39;;;;;;;5.13;3.35;;;24.40;43.10;;;;;;4440998;28;657404;-66
2022/05/05 12:38:34;;;;;;;4.53;3.10;;;24.10;42.50;;;;;;4422678;28;656964;-66
2022/05/05 12:41:22;;;;;;;4.03;3.38;;;23.40;41.90;;;;;;4398294;28;657531;-66
2022/05/05 12:44:09;;;;;;;7.47;3.50;;;22.80;41.80;;;;;;4433818;28;656525;-65
2022/05/05 12:47:02;;;;;;;5.13;3.37;;;22.40;44.10;;;;;;4412985;28;657773;-66
2022/05/05 12:49:49;;;;;;;5.20;3.30;;;22.60;43.60;;;;;;4414868;28;656744;-66
2022/05/05 13:01:53;;;;;;;7.97;3.53;;;23.90;42.70;;;;;;4411817;28;656892;-66
2022/05/05 13:04:40;;;;;;;7.07;3.07;;;24.20;43.00;;;;;;4419239;28;656679;-66
2022/05/05 13:07:28;;;;;;;4.25;3.13;;;24.60;43.50;;;;;;4441922;28;657308;-66
2022/05/05 13:10:15;;;;;;;4.55;3.40;;;23.80;43.80;;;;;;4422792;28;656811;-66
2022/05/05 13:13:02;;;;;;;3.63;2.50;;;23.60;44.20;;;;;;4435508;28;656806;-66
2022/05/05 13:15:52;;;;;;;4.60;2.53;;;24.60;42.10;;;;;;4433660;28;656488;-66
2022/05/05 13:18:39;;;;;;;4.05;2.50;;;26.10;40.40;;;;;;4435635;28;658530;-66
2022/05/05 13:21:26;;;;;;;3.97;2.45;;;25.30;39.60;;;;;;4425431;28;658583;-66
2022/05/05 13:24:14;;;;;;;3.53;2.30;;;23.80;39.80;;;;;;4438615;28;656531;-66
2022/05/05 13:27:01;;;;;;;3.10;2.20;;;23.60;40.90;;;;;;4422011;28;656572;-65
2022/05/05 13:29:48;;;;;;;3.80;2.17;;;22.40;41.70;;;;;;4444140;28;657486;-65
2022/05/05 13:32:37;;;;;;;8.50;2.20;;;22.50;44.10;;;;;;4415952;28;656538;-66
2022/05/05 13:35:24;;;;;;;2.23;1.97;;;22.20;43.90;;;;;;4439338;28;656239;-66
2022/05/05 13:38:11;;;;;;;2.10;1.90;;;22.40;42.90;;;;;;4422103;28;656525;-66
2022/05/05 13:40:58;;;;;;;2.50;2.20;;;23.20;41.40;;;;;;4442170;28;657376;-65
2022/05/05 13:43:45;;;;;;;4.43;2.27;;;22.20;42.20;;;;;;4416270;28;656438;-65
2022/05/05 13:46:33;;;;;;;2.83;2.00;;;22.80;45.40;;;;;;4437831;28;657871;-66
2022/05/05 13:49:22;;;;;;;5.60;2.00;;;23.40;46.70;;;;;;4421605;28;657189;-66
2022/05/05 13:52:09;;;;;;;3.10;2.00;;;24.40;41.10;;;;;;4436257;28;656761;-66
2022/05/05 13:54:56;;;;;;;2.57;1.97;;;23.30;41.50;;;;;;4418863;28;657877;-66
2022/05/05 13:57:44;;;;;;;2.50;2.20;;;22.90;42.40;;;;;;4438208;28;657659;-66
2022/05/05 14:00:31;;;;;;;5.83;2.27;;;23.40;41.80;;;;;;4419216;28;656911;-65
2022/05/05 14:03:19;;;;;;;2.10;1.60;;;22.40;41.00;;;;;;4438446;28;657065;-66
2022/05/05 14:06:07;;;;;;;3.83;2.10;;;22.10;44.10;;;;;;4404382;28;656695;-66
2022/05/05 14:12:15;;;;;;;2.20;2.00;;;21.80;44.10;;;;;;4413032;28;656819;-65
2022/05/05 14:15:02;;;;;;;2.97;2.10;;;21.80;46.10;;;;;;4385765;28;657232;-66
2022/05/05 14:17:50;;;;;;;2.77;1.80;;;21.60;44.30;;;;;;4437579;28;656730;-66
2022/05/05 14:20:37;;;;;;;4.93;2.40;;;21.40;44.70;;;;;;4416686;28;657435;-66
2022/05/05 14:23:25;;;;;;;2.33;1.90;;;21.40;44.50;;;;;;4443249;28;656770;-66
2022/05/05 14:26:12;;;;;;;6.43;2.13;;;21.30;46.20;;;;;;4409783;28;657591;-66
2022/05/05 14:29:01;;;;;;;2.40;1.80;;;21.30;46.80;;;;;;4432301;28;656836;-66
2022/05/05 14:31:48;;;;;;;3.23;1.93;;;21.10;46.60;;;;;;4437985;28;657674;-65
2022/05/05 14:34:35;;;;;;;10.37;2.40;;;21.00;46.30;;;;;;4426291;28;656521;-65
2022/05/05 14:37:23;;;;;;;9.47;2.53;;;20.30;53.40;;;;;;4440446;28;658273;-66
2022/05/05 14:40:13;;;;;;;14.23;2.70;;;19.80;61.60;;;;;;4422934;28;656726;-65
2022/05/05 14:43:00;;;;;;;19.53;5.30;;;19.00;83.80;;;;;;4416557;28;657835;-65
2022/05/05 14:45:48;;;;;;;8.80;3.03;;;18.30;99.90;;;;;;4447177;28;658167;-65
2022/05/05 14:48:35;;;;;;;12.30;3.40;;;18.00;99.90;;;;;;4417266;28;656403;-65
2022/05/05 14:51:22;;;;;;;9.27;3.10;;;17.90;99.90;;;;;;4437482;28;658401;-65
2022/05/05 14:54:10;;;;;;;8.90;3.23;;;17.90;99.90;;;;;;4436147;28;656514;-65
2022/05/05 14:56:59;;;;;;;10.97;3.37;;;17.80;99.90;;;;;;4444489;28;656656;-65
2022/05/05 14:59:46;;;;;;;10.77;3.60;;;17.60;99.90;;;;;;4417179;28;657550;-65
2022/05/05 15:02:33;;;;;;;7.23;2.90;;;17.40;99.90;;;;;;4441578;28;658222;-66
2022/05/05 15:05:22;;;;;;;11.97;3.50;;;17.30;99.90;;;;;;4420048;28;656639;-66
2022/05/05 15:08:09;;;;;;;8.73;3.53;;;17.30;99.90;;;;;;4445618;28;657936;-66
2022/05/05 15:10:56;;;;;;;6.87;3.80;;;17.20;99.90;;;;;;4422521;28;656469;-66
2022/05/05 15:13:45;;;;;;;8.03;4.20;;;17.10;99.90;;;;;;4447621;28;658884;-65
2022/05/05 15:16:32;;;;;;;13.10;5.37;;;17.00;99.90;;;;;;4419989;28;657429;-66
2022/05/05 15:19:19;;;;;;;10.43;5.10;;;16.70;99.90;;;;;;4439992;28;657268;-66
2022/05/05 15:22:08;;;;;;;9.30;5.37;;;16.80;99.90;;;;;;4421721;28;657407;-65